sensor_id;sensor_type;location;lat;lon;timestamp;P1;durP1;ratioP1;P2;durP2;ratioP2
24637;SDS011;12773;50.162;8.548;2023-03-14T00:00:58;2.33;;;1.20;;
24637;SDS011;12773;50.162;8.548;2023-03-14T00:03:46;4.12;;;1.40;;
24637;SDS011;12773;50.162;8.548;2023-03-14T00:06:34;4.12;;;1.37;;
24637;SDS011;12773;50.162;8.548;2023-03-14T00:09:21;2.45;;;1.40;;
24637;SDS011;12773;50.162;8.548;2023-03-14T00:12:09;2.17;;;1.30;;
24637;SDS011;12773;50.162;8.548;2023-03-14T00:14:57;1.77;;;1.30;;
24637;SDS011;12773;50.162;8.548;2023-03-14T00:17:45;2.65;;;1.52;;
24637;SDS011;12773;50.162;8.548;2023-03-14T00:20:32;3.50;;;1.50;;
24637;SDS011;12773;50.162;8.548;2023-03-14T00:23:19;2.33;;;1.60;;
24637;SDS011;12773;50.162;8.548;2023-03-14T00:26:08;5.30;;;1.45;;
24637;SDS011;12773;50.162;8.548;2023-03-14T00:28:59;3.90;;;1.62;;
24637;SDS011;12773;50.162;8.548;2023-03-14T00:31:47;2.45;;;1.50;;
24637;SDS011;12773;50.162;8.548;2023-03-14T00:34:34;3.20;;;1.57;;
24637;SDS011;12773;50.162;8.548;2023-03-14T00:37:22;2.87;;;1.52;;
24637;SDS011;12773;50.162;8.548;2023-03-14T00:40:09;3.12;;;1.50;;
24637;SDS011;12773;50.162;8.548;2023-03-14T00:42:57;4.70;;;1.32;;
24637;SDS011;12773;50.162;8.548;2023-03-14T00:45:44;3.20;;;1.57;;
24637;SDS011;12773;50.162;8.548;2023-03-14T00:48:32;2.10;;;1.40;;
24637;SDS011;12773;50.162;8.548;2023-03-14T00:51:19;4.55;;;1.45;;
24637;SDS011;12773;50.162;8.548;2023-03-14T00:54:07;5.72;;;1.47;;
24637;SDS011;12773;50.162;8.548;2023-03-14T00:56:55;2.77;;;1.20;;
24637;SDS011;12773;50.162;8.548;2023-03-14T00:59:42;4.80;;;1.30;;
24637;SDS011;12773;50.162;8.548;2023-03-14T01:02:30;2.72;;;1.10;;
24637;SDS011;12773;50.162;8.548;2023-03-14T01:05:17;2.37;;;0.90;;
24637;SDS011;12773;50.162;8.548;2023-03-14T01:08:06;5.33;;;1.22;;
24637;SDS011;12773;50.162;8.548;2023-03-14T01:10:53;5.80;;;1.25;;
24637;SDS011;12773;50.162;8.548;2023-03-14T01:13:40;5.40;;;1.20;;
24637;SDS011;12773;50.162;8.548;2023-03-14T01:16:28;4.03;;;1.25;;
24637;SDS011;12773;50.162;8.548;2023-03-14T01:19:18;7.30;;;1.27;;
24637;SDS011;12773;50.162;8.548;2023-03-14T01:22:05;5.62;;;1.20;;
24637;SDS011;12773;50.162;8.548;2023-03-14T01:24:52;5.28;;;1.37;;
24637;SDS011;12773;50.162;8.548;2023-03-14T01:27:39;8.08;;;1.52;;
24637;SDS011;12773;50.162;8.548;2023-03-14T01:30:27;7.47;;;1.20;;
24637;SDS011;12773;50.162;8.548;2023-03-14T01:33:14;10.40;;;1.72;;
24637;SDS011;12773;50.162;8.548;2023-03-14T01:36:02;7.95;;;1.30;;
24637;SDS011;12773;50.162;8.548;2023-03-14T01:38:49;6.55;;;1.40;;
24637;SDS011;12773;50.162;8.548;2023-03-14T01:41:37;6.25;;;1.17;;
24637;SDS011;12773;50.162;8.548;2023-03-14T01:44:24;5.95;;;1.40;;
24637;SDS011;12773;50.162;8.548;2023-03-14T01:47:11;4.65;;;1.10;;
24637;SDS011;12773;50.162;8.548;2023-03-14T01:50:03;6.10;;;1.12;;
24637;SDS011;12773;50.162;8.548;2023-03-14T01:52:52;5.45;;;1.55;;
24637;SDS011;12773;50.162;8.548;2023-03-14T01:55:41;4.42;;;1.17;;
24637;SDS011;12773;50.162;8.548;2023-03-14T01:58:29;3.90;;;1.42;;
24637;SDS011;12773;50.162;8.548;2023-03-14T02:01:20;7.75;;;1.17;;
24637;SDS011;12773;50.162;8.548;2023-03-14T02:04:09;5.20;;;0.95;;
24637;SDS011;12773;50.162;8.548;2023-03-14T02:07:02;9.68;;;1.30;;
24637;SDS011;12773;50.162;8.548;2023-03-14T02:09:50;7.42;;;1.30;;
24637;SDS011;12773;50.162;8.548;2023-03-14T02:12:38;8.40;;;1.40;;
24637;SDS011;12773;50.162;8.548;2023-03-14T02:15:26;9.73;;;1.30;;
24637;SDS011;12773;50.162;8.548;2023-03-14T02:18:13;6.65;;;1.27;;
24637;SDS011;12773;50.162;8.548;2023-03-14T02:21:17;7.35;;;1.42;;
24637;SDS011;12773;50.162;8.548;2023-03-14T02:24:30;6.25;;;1.00;;
24637;SDS011;12773;50.162;8.548;2023-03-14T02:27:13;6.67;;;1.00;;
24637;SDS011;12773;50.162;8.548;2023-03-14T02:30:06;3.37;;;1.20;;
24637;SDS011;12773;50.162;8.548;2023-03-14T02:32:55;4.17;;;1.17;;
24637;SDS011;12773;50.162;8.548;2023-03-14T02:35:57;4.00;;;1.10;;
24637;SDS011;12773;50.162;8.548;2023-03-14T02:39:10;8.65;;;1.37;;
24637;SDS011;12773;50.162;8.548;2023-03-14T02:41:55;8.40;;;1.17;;
24637;SDS011;12773;50.162;8.548;2023-03-14T02:44:55;6.75;;;1.35;;
24637;SDS011;12773;50.162;8.548;2023-03-14T02:47:49;5.08;;;1.00;;
24637;SDS011;12773;50.162;8.548;2023-03-14T02:50:37;5.70;;;1.00;;
24637;SDS011;12773;50.162;8.548;2023-03-14T02:53:26;9.48;;;1.45;;
24637;SDS011;12773;50.162;8.548;2023-03-14T02:56:15;8.70;;;1.50;;
24637;SDS011;12773;50.162;8.548;2023-03-14T02:59:03;2.67;;;1.05;;
24637;SDS011;12773;50.162;8.548;2023-03-14T03:01:51;6.83;;;1.20;;
24637;SDS011;12773;50.162;8.548;2023-03-14T03:04:38;5.67;;;1.10;;
24637;SDS011;12773;50.162;8.548;2023-03-14T03:07:25;5.50;;;1.35;;
24637;SDS011;12773;50.162;8.548;2023-03-14T03:10:12;7.65;;;1.07;;
24637;SDS011;12773;50.162;8.548;2023-03-14T03:13:00;5.72;;;1.47;;
24637;SDS011;12773;50.162;8.548;2023-03-14T03:15:47;5.28;;;1.20;;
24637;SDS011;12773;50.162;8.548;2023-03-14T03:18:34;6.45;;;1.32;;
24637;SDS011;12773;50.162;8.548;2023-03-14T03:21:22;8.18;;;1.27;;
24637;SDS011;12773;50.162;8.548;2023-03-14T03:24:09;5.90;;;1.27;;
24637;SDS011;12773;50.162;8.548;2023-03-14T03:26:56;10.32;;;1.70;;
24637;SDS011;12773;50.162;8.548;2023-03-14T03:29:43;9.35;;;1.30;;
24637;SDS011;12773;50.162;8.548;2023-03-14T03:32:31;3.80;;;0.90;;
24637;SDS011;12773;50.162;8.548;2023-03-14T03:35:18;3.27;;;1.05;;
24637;SDS011;12773;50.162;8.548;2023-03-14T03:38:05;7.55;;;1.35;;
24637;SDS011;12773;50.162;8.548;2023-03-14T03:40:53;5.47;;;1.22;;
24637;SDS011;12773;50.162;8.548;2023-03-14T03:43:40;4.97;;;1.20;;
24637;SDS011;12773;50.162;8.548;2023-03-14T03:46:27;9.25;;;1.27;;
24637;SDS011;12773;50.162;8.548;2023-03-14T03:49:14;8.53;;;1.40;;
24637;SDS011;12773;50.162;8.548;2023-03-14T03:52:02;5.80;;;1.27;;
24637;SDS011;12773;50.162;8.548;2023-03-14T03:54:49;4.53;;;0.95;;
24637;SDS011;12773;50.162;8.548;2023-03-14T03:57:36;8.98;;;1.40;;
24637;SDS011;12773;50.162;8.548;2023-03-14T04:00:24;4.75;;;1.25;;
24637;SDS011;12773;50.162;8.548;2023-03-14T04:03:11;10.82;;;1.37;;
24637;SDS011;12773;50.162;8.548;2023-03-14T04:05:59;6.28;;;1.20;;
24637;SDS011;12773;50.162;8.548;2023-03-14T04:08:47;4.15;;;1.20;;
24637;SDS011;12773;50.162;8.548;2023-03-14T04:11:35;7.87;;;1.40;;
24637;SDS011;12773;50.162;8.548;2023-03-14T04:14:22;10.25;;;1.55;;
24637;SDS011;12773;50.162;8.548;2023-03-14T04:17:10;5.72;;;1.00;;
24637;SDS011;12773;50.162;8.548;2023-03-14T04:19:57;7.33;;;1.20;;
24637;SDS011;12773;50.162;8.548;2023-03-14T04:22:45;3.08;;;1.10;;
24637;SDS011;12773;50.162;8.548;2023-03-14T04:25:32;7.50;;;1.15;;
24637;SDS011;12773;50.162;8.548;2023-03-14T04:28:19;3.25;;;0.95;;
24637;SDS011;12773;50.162;8.548;2023-03-14T04:31:10;4.95;;;1.10;;
24637;SDS011;12773;50.162;8.548;2023-03-14T04:33:59;4.60;;;1.12;;
24637;SDS011;12773;50.162;8.548;2023-03-14T04:36:46;4.65;;;1.30;;
24637;SDS011;12773;50.162;8.548;2023-03-14T04:39:34;6.37;;;1.80;;
24637;SDS011;12773;50.162;8.548;2023-03-14T04:42:23;9.18;;;2.65;;
24637;SDS011;12773;50.162;8.548;2023-03-14T04:45:10;10.55;;;3.20;;
24637;SDS011;12773;50.162;8.548;2023-03-14T04:47:57;7.10;;;2.83;;
24637;SDS011;12773;50.162;8.548;2023-03-14T04:50:45;11.20;;;2.42;;
24637;SDS011;12773;50.162;8.548;2023-03-14T04:53:33;4.40;;;1.87;;
24637;SDS011;12773;50.162;8.548;2023-03-14T04:56:22;7.53;;;1.90;;
24637;SDS011;12773;50.162;8.548;2023-03-14T04:59:10;9.90;;;1.87;;
24637;SDS011;12773;50.162;8.548;2023-03-14T05:01:57;4.70;;;1.52;;
24637;SDS011;12773;50.162;8.548;2023-03-14T05:04:44;4.42;;;1.80;;
24637;SDS011;12773;50.162;8.548;2023-03-14T05:07:31;6.83;;;1.60;;
24637;SDS011;12773;50.162;8.548;2023-03-14T05:10:18;4.87;;;1.35;;
24637;SDS011;12773;50.162;8.548;2023-03-14T05:13:06;4.90;;;1.00;;
24637;SDS011;12773;50.162;8.548;2023-03-14T05:15:53;7.35;;;1.42;;
24637;SDS011;12773;50.162;8.548;2023-03-14T05:18:44;9.40;;;1.35;;
24637;SDS011;12773;50.162;8.548;2023-03-14T05:21:31;5.03;;;1.00;;
24637;SDS011;12773;50.162;8.548;2023-03-14T05:24:19;4.87;;;1.22;;
24637;SDS011;12773;50.162;8.548;2023-03-14T05:27:09;8.75;;;1.35;;
24637;SDS011;12773;50.162;8.548;2023-03-14T05:29:56;4.95;;;0.90;;
24637;SDS011;12773;50.162;8.548;2023-03-14T05:32:43;5.00;;;1.20;;
24637;SDS011;12773;50.162;8.548;2023-03-14T05:35:31;6.33;;;1.05;;
24637;SDS011;12773;50.162;8.548;2023-03-14T05:38:18;4.40;;;1.35;;
24637;SDS011;12773;50.162;8.548;2023-03-14T05:41:05;4.12;;;0.80;;
24637;SDS011;12773;50.162;8.548;2023-03-14T05:43:52;3.30;;;1.00;;
24637;SDS011;12773;50.162;8.548;2023-03-14T05:46:39;4.90;;;1.00;;
24637;SDS011;12773;50.162;8.548;2023-03-14T05:49:27;3.72;;;1.15;;
24637;SDS011;12773;50.162;8.548;2023-03-14T05:52:17;4.58;;;1.10;;
24637;SDS011;12773;50.162;8.548;2023-03-14T05:55:04;3.42;;;0.95;;
24637;SDS011;12773;50.162;8.548;2023-03-14T05:57:53;2.05;;;0.80;;
24637;SDS011;12773;50.162;8.548;2023-03-14T06:00:40;4.87;;;0.95;;
24637;SDS011;12773;50.162;8.548;2023-03-14T06:03:28;6.90;;;1.00;;
24637;SDS011;12773;50.162;8.548;2023-03-14T06:06:15;3.40;;;0.90;;
24637;SDS011;12773;50.162;8.548;2023-03-14T06:09:02;3.62;;;0.88;;
24637;SDS011;12773;50.162;8.548;2023-03-14T06:11:49;2.75;;;0.55;;
24637;SDS011;12773;50.162;8.548;2023-03-14T06:14:36;4.37;;;0.90;;
24637;SDS011;12773;50.162;8.548;2023-03-14T06:17:23;8.25;;;0.80;;
24637;SDS011;12773;50.162;8.548;2023-03-14T06:20:11;2.62;;;0.78;;
24637;SDS011;12773;50.162;8.548;2023-03-14T06:22:58;2.98;;;0.70;;
24637;SDS011;12773;50.162;8.548;2023-03-14T06:25:45;5.33;;;0.80;;
24637;SDS011;12773;50.162;8.548;2023-03-14T06:28:32;3.80;;;0.78;;
24637;SDS011;12773;50.162;8.548;2023-03-14T06:31:20;3.55;;;0.85;;
24637;SDS011;12773;50.162;8.548;2023-03-14T06:34:07;1.82;;;0.90;;
24637;SDS011;12773;50.162;8.548;2023-03-14T06:36:54;3.20;;;0.80;;
24637;SDS011;12773;50.162;8.548;2023-03-14T06:39:41;3.85;;;0.90;;
24637;SDS011;12773;50.162;8.548;2023-03-14T06:42:29;3.75;;;0.70;;
24637;SDS011;12773;50.162;8.548;2023-03-14T06:45:17;4.12;;;1.00;;
24637;SDS011;12773;50.162;8.548;2023-03-14T06:48:07;3.15;;;0.82;;
24637;SDS011;12773;50.162;8.548;2023-03-14T06:50:54;2.90;;;0.90;;
24637;SDS011;12773;50.162;8.548;2023-03-14T06:53:41;4.20;;;0.80;;
24637;SDS011;12773;50.162;8.548;2023-03-14T06:56:29;3.87;;;0.90;;
24637;SDS011;12773;50.162;8.548;2023-03-14T06:59:16;5.40;;;0.80;;
24637;SDS011;12773;50.162;8.548;2023-03-14T07:02:03;7.12;;;1.00;;
24637;SDS011;12773;50.162;8.548;2023-03-14T07:04:50;2.52;;;0.60;;
24637;SDS011;12773;50.162;8.548;2023-03-14T07:07:38;7.92;;;0.82;;
24637;SDS011;12773;50.162;8.548;2023-03-14T07:10:25;4.55;;;0.80;;
24637;SDS011;12773;50.162;8.548;2023-03-14T07:13:12;3.52;;;0.88;;
24637;SDS011;12773;50.162;8.548;2023-03-14T07:15:59;3.60;;;0.98;;
24637;SDS011;12773;50.162;8.548;2023-03-14T07:18:47;3.50;;;0.90;;
24637;SDS011;12773;50.162;8.548;2023-03-14T07:21:34;3.22;;;1.10;;
24637;SDS011;12773;50.162;8.548;2023-03-14T07:24:22;4.37;;;0.82;;
24637;SDS011;12773;50.162;8.548;2023-03-14T07:27:09;3.10;;;0.95;;
24637;SDS011;12773;50.162;8.548;2023-03-14T07:29:56;5.75;;;0.80;;
24637;SDS011;12773;50.162;8.548;2023-03-14T07:32:43;4.30;;;0.90;;
24637;SDS011;12773;50.162;8.548;2023-03-14T07:35:30;3.83;;;0.93;;
24637;SDS011;12773;50.162;8.548;2023-03-14T07:38:17;1.82;;;1.00;;
24637;SDS011;12773;50.162;8.548;2023-03-14T07:41:06;4.78;;;0.95;;
24637;SDS011;12773;50.162;8.548;2023-03-14T07:43:54;4.15;;;0.75;;
24637;SDS011;12773;50.162;8.548;2023-03-14T07:46:41;5.37;;;1.20;;
24637;SDS011;12773;50.162;8.548;2023-03-14T07:49:28;3.47;;;0.78;;
24637;SDS011;12773;50.162;8.548;2023-03-14T07:52:16;7.22;;;3.58;;
24637;SDS011;12773;50.162;8.548;2023-03-14T07:55:03;2.98;;;0.90;;
24637;SDS011;12773;50.162;8.548;2023-03-14T07:57:56;2.90;;;1.10;;
24637;SDS011;12773;50.162;8.548;2023-03-14T08:00:39;10.05;;;3.35;;
24637;SDS011;12773;50.162;8.548;2023-03-14T08:03:27;2.77;;;1.30;;
24637;SDS011;12773;50.162;8.548;2023-03-14T08:06:14;12.85;;;6.08;;
24637;SDS011;12773;50.162;8.548;2023-03-14T08:09:02;14.43;;;9.05;;
24637;SDS011;12773;50.162;8.548;2023-03-14T08:11:50;4.37;;;1.45;;
24637;SDS011;12773;50.162;8.548;2023-03-14T08:14:38;2.30;;;0.90;;
24637;SDS011;12773;50.162;8.548;2023-03-14T08:17:25;15.72;;;7.95;;
24637;SDS011;12773;50.162;8.548;2023-03-14T08:20:13;14.38;;;8.25;;
24637;SDS011;12773;50.162;8.548;2023-03-14T08:23:00;3.65;;;1.80;;
24637;SDS011;12773;50.162;8.548;2023-03-14T08:25:48;4.90;;;1.95;;
24637;SDS011;12773;50.162;8.548;2023-03-14T08:28:36;6.78;;;1.20;;
24637;SDS011;12773;50.162;8.548;2023-03-14T08:31:23;2.33;;;1.20;;
24637;SDS011;12773;50.162;8.548;2023-03-14T08:34:10;2.55;;;1.20;;
24637;SDS011;12773;50.162;8.548;2023-03-14T08:36:58;4.00;;;1.27;;
24637;SDS011;12773;50.162;8.548;2023-03-14T08:39:47;2.50;;;1.15;;
24637;SDS011;12773;50.162;8.548;2023-03-14T08:42:34;6.55;;;2.75;;
24637;SDS011;12773;50.162;8.548;2023-03-14T08:45:25;4.35;;;1.62;;
24637;SDS011;12773;50.162;8.548;2023-03-14T08:48:12;4.47;;;1.27;;
24637;SDS011;12773;50.162;8.548;2023-03-14T08:51:11;4.72;;;1.20;;
24637;SDS011;12773;50.162;8.548;2023-03-14T08:54:01;7.03;;;1.20;;
24637;SDS011;12773;50.162;8.548;2023-03-14T08:56:48;4.75;;;1.40;;
24637;SDS011;12773;50.162;8.548;2023-03-14T08:59:35;3.70;;;2.05;;
24637;SDS011;12773;50.162;8.548;2023-03-14T09:02:23;3.22;;;1.60;;
24637;SDS011;12773;50.162;8.548;2023-03-14T09:05:12;4.37;;;1.67;;
24637;SDS011;12773;50.162;8.548;2023-03-14T09:07:59;4.15;;;1.70;;
24637;SDS011;12773;50.162;8.548;2023-03-14T09:10:46;4.28;;;2.05;;
24637;SDS011;12773;50.162;8.548;2023-03-14T09:13:33;5.97;;;2.22;;
24637;SDS011;12773;50.162;8.548;2023-03-14T09:16:21;3.25;;;1.60;;
24637;SDS011;12773;50.162;8.548;2023-03-14T09:19:08;2.67;;;1.37;;
24637;SDS011;12773;50.162;8.548;2023-03-14T09:21:55;1.20;;;1.10;;
24637;SDS011;12773;50.162;8.548;2023-03-14T09:24:43;2.33;;;1.20;;
24637;SDS011;12773;50.162;8.548;2023-03-14T09:27:30;2.70;;;1.85;;
24637;SDS011;12773;50.162;8.548;2023-03-14T09:30:18;4.90;;;2.47;;
24637;SDS011;12773;50.162;8.548;2023-03-14T09:33:05;4.72;;;1.80;;
24637;SDS011;12773;50.162;8.548;2023-03-14T09:35:52;2.90;;;1.55;;
24637;SDS011;12773;50.162;8.548;2023-03-14T09:38:39;5.20;;;1.62;;
24637;SDS011;12773;50.162;8.548;2023-03-14T09:41:31;4.12;;;2.27;;
24637;SDS011;12773;50.162;8.548;2023-03-14T09:44:21;3.90;;;1.45;;
24637;SDS011;12773;50.162;8.548;2023-03-14T09:47:16;2.80;;;1.60;;
24637;SDS011;12773;50.162;8.548;2023-03-14T09:50:05;6.97;;;2.30;;
24637;SDS011;12773;50.162;8.548;2023-03-14T09:53:06;3.17;;;1.32;;
24637;SDS011;12773;50.162;8.548;2023-03-14T09:55:51;3.10;;;1.30;;
24637;SDS011;12773;50.162;8.548;2023-03-14T09:58:41;1.75;;;1.30;;
24637;SDS011;12773;50.162;8.548;2023-03-14T10:01:31;3.83;;;1.50;;
24637;SDS011;12773;50.162;8.548;2023-03-14T10:04:21;3.80;;;1.40;;
24637;SDS011;12773;50.162;8.548;2023-03-14T10:07:11;2.02;;;1.40;;
24637;SDS011;12773;50.162;8.548;2023-03-14T10:10:01;4.42;;;1.47;;
24637;SDS011;12773;50.162;8.548;2023-03-14T10:16:01;2.87;;;1.45;;
24637;SDS011;12773;50.162;8.548;2023-03-14T10:18:51;2.67;;;1.85;;
24637;SDS011;12773;50.162;8.548;2023-03-14T10:21:44;2.45;;;1.45;;
24637;SDS011;12773;50.162;8.548;2023-03-14T10:24:29;2.35;;;1.50;;
24637;SDS011;12773;50.162;8.548;2023-03-14T10:27:20;1.80;;;1.45;;
24637;SDS011;12773;50.162;8.548;2023-03-14T10:30:14;2.02;;;1.30;;
24637;SDS011;12773;50.162;8.548;2023-03-14T10:33:07;1.80;;;1.40;;
24637;SDS011;12773;50.162;8.548;2023-03-14T10:36:02;2.83;;;1.60;;
24637;SDS011;12773;50.162;8.548;2023-03-14T10:38:46;2.65;;;1.40;;
24637;SDS011;12773;50.162;8.548;2023-03-14T10:41:34;3.58;;;1.70;;
24637;SDS011;12773;50.162;8.548;2023-03-14T10:44:22;3.55;;;1.60;;
24637;SDS011;12773;50.162;8.548;2023-03-14T10:47:16;4.90;;;1.55;;
24637;SDS011;12773;50.162;8.548;2023-03-14T10:50:25;2.27;;;1.50;;
24637;SDS011;12773;50.162;8.548;2023-03-14T10:53:16;3.25;;;1.80;;
24637;SDS011;12773;50.162;8.548;2023-03-14T10:56:04;2.37;;;1.50;;
24637;SDS011;12773;50.162;8.548;2023-03-14T10:58:56;5.35;;;2.00;;
24637;SDS011;12773;50.162;8.548;2023-03-14T11:01:48;2.17;;;1.80;;
24637;SDS011;12773;50.162;8.548;2023-03-14T11:04:48;2.45;;;1.80;;
24637;SDS011;12773;50.162;8.548;2023-03-14T11:07:40;1.67;;;1.57;;
24637;SDS011;12773;50.162;8.548;2023-03-14T11:10:33;6.78;;;2.20;;
24637;SDS011;12773;50.162;8.548;2023-03-14T11:13:30;3.85;;;2.05;;
24637;SDS011;12773;50.162;8.548;2023-03-14T11:22:10;2.15;;;1.85;;
24637;SDS011;12773;50.162;8.548;2023-03-14T11:37:17;2.20;;;1.95;;
24637;SDS011;12773;50.162;8.548;2023-03-14T11:40:26;6.37;;;2.77;;
24637;SDS011;12773;50.162;8.548;2023-03-14T11:43:37;3.25;;;2.25;;
24637;SDS011;12773;50.162;8.548;2023-03-14T11:46:19;2.10;;;1.90;;
24637;SDS011;12773;50.162;8.548;2023-03-14T11:49:25;2.98;;;2.10;;
24637;SDS011;12773;50.162;8.548;2023-03-14T11:52:27;3.75;;;2.00;;
24637;SDS011;12773;50.162;8.548;2023-03-14T11:58:29;6.35;;;1.90;;
24637;SDS011;12773;50.162;8.548;2023-03-14T12:01:19;5.83;;;1.85;;
24637;SDS011;12773;50.162;8.548;2023-03-14T12:04:14;0.95;;;0.37;;
24637;SDS011;12773;50.162;8.548;2023-03-14T12:07:12;1.67;;;0.40;;
24637;SDS011;12773;50.162;8.548;2023-03-14T12:10:02;3.02;;;0.65;;
24637;SDS011;12773;50.162;8.548;2023-03-14T12:12:50;0.75;;;0.30;;
24637;SDS011;12773;50.162;8.548;2023-03-14T12:15:39;0.25;;;0.20;;
24637;SDS011;12773;50.162;8.548;2023-03-14T12:18:30;1.20;;;0.20;;
24637;SDS011;12773;50.162;8.548;2023-03-14T12:21:20;0.72;;;0.37;;
24637;SDS011;12773;50.162;8.548;2023-03-14T12:24:14;3.85;;;0.30;;
24637;SDS011;12773;50.162;8.548;2023-03-14T12:26:59;0.28;;;0.28;;
24637;SDS011;12773;50.162;8.548;2023-03-14T12:29:57;0.33;;;0.30;;
24637;SDS011;12773;50.162;8.548;2023-03-14T12:36:01;2.12;;;0.50;;
24637;SDS011;12773;50.162;8.548;2023-03-14T12:39:10;0.70;;;0.70;;
24637;SDS011;12773;50.162;8.548;2023-03-14T12:41:51;0.40;;;0.40;;
24637;SDS011;12773;50.162;8.548;2023-03-14T12:44:40;0.75;;;0.65;;
24637;SDS011;12773;50.162;8.548;2023-03-14T12:50:28;0.85;;;0.50;;
24637;SDS011;12773;50.162;8.548;2023-03-14T12:53:32;1.20;;;0.50;;
24637;SDS011;12773;50.162;8.548;2023-03-14T12:59:18;1.35;;;0.60;;
24637;SDS011;12773;50.162;8.548;2023-03-14T13:02:26;3.87;;;1.62;;
24637;SDS011;12773;50.162;8.548;2023-03-14T13:05:25;1.40;;;0.55;;
24637;SDS011;12773;50.162;8.548;2023-03-14T13:08:12;0.78;;;0.60;;
24637;SDS011;12773;50.162;8.548;2023-03-14T13:10:59;1.02;;;0.70;;
24637;SDS011;12773;50.162;8.548;2023-03-14T13:13:56;1.90;;;0.80;;
24637;SDS011;12773;50.162;8.548;2023-03-14T13:16:46;0.78;;;0.78;;
24637;SDS011;12773;50.162;8.548;2023-03-14T13:19:33;1.30;;;0.60;;
24637;SDS011;12773;50.162;8.548;2023-03-14T13:22:25;1.02;;;0.90;;
24637;SDS011;12773;50.162;8.548;2023-03-14T13:25:15;2.20;;;0.70;;
24637;SDS011;12773;50.162;8.548;2023-03-14T13:28:03;0.88;;;0.70;;
24637;SDS011;12773;50.162;8.548;2023-03-14T13:30:57;1.22;;;0.70;;
24637;SDS011;12773;50.162;8.548;2023-03-14T13:33:45;0.53;;;0.53;;
24637;SDS011;12773;50.162;8.548;2023-03-14T13:36:33;0.55;;;0.55;;
24637;SDS011;12773;50.162;8.548;2023-03-14T13:39:23;0.55;;;0.55;;
24637;SDS011;12773;50.162;8.548;2023-03-14T13:42:14;0.90;;;0.42;;
24637;SDS011;12773;50.162;8.548;2023-03-14T13:45:02;0.80;;;0.50;;
24637;SDS011;12773;50.162;8.548;2023-03-14T13:47:51;0.42;;;0.30;;
24637;SDS011;12773;50.162;8.548;2023-03-14T13:50:38;0.30;;;0.30;;
24637;SDS011;12773;50.162;8.548;2023-03-14T13:53:29;0.45;;;0.33;;
24637;SDS011;12773;50.162;8.548;2023-03-14T13:56:18;0.30;;;0.30;;
24637;SDS011;12773;50.162;8.548;2023-03-14T13:59:26;0.40;;;0.30;;
24637;SDS011;12773;50.162;8.548;2023-03-14T14:02:15;1.10;;;0.37;;
24637;SDS011;12773;50.162;8.548;2023-03-14T14:05:03;0.62;;;0.30;;
24637;SDS011;12773;50.162;8.548;2023-03-14T14:07:51;0.40;;;0.40;;
24637;SDS011;12773;50.162;8.548;2023-03-14T14:10:39;0.30;;;0.30;;
24637;SDS011;12773;50.162;8.548;2023-03-14T14:13:27;2.47;;;0.40;;
24637;SDS011;12773;50.162;8.548;2023-03-14T14:16:17;2.25;;;0.40;;
24637;SDS011;12773;50.162;8.548;2023-03-14T14:19:09;0.40;;;0.20;;
24637;SDS011;12773;50.162;8.548;2023-03-14T14:21:56;1.00;;;0.33;;
24637;SDS011;12773;50.162;8.548;2023-03-14T14:24:44;0.35;;;0.30;;
24637;SDS011;12773;50.162;8.548;2023-03-14T14:27:35;0.40;;;0.40;;
24637;SDS011;12773;50.162;8.548;2023-03-14T14:30:26;0.72;;;0.40;;
24637;SDS011;12773;50.162;8.548;2023-03-14T14:33:19;0.20;;;0.20;;
24637;SDS011;12773;50.162;8.548;2023-03-14T14:36:14;0.60;;;0.40;;
24637;SDS011;12773;50.162;8.548;2023-03-14T14:39:11;2.25;;;0.47;;
24637;SDS011;12773;50.162;8.548;2023-03-14T14:42:13;1.22;;;0.50;;
24637;SDS011;12773;50.162;8.548;2023-03-14T14:45:02;2.17;;;0.70;;
24637;SDS011;12773;50.162;8.548;2023-03-14T14:47:50;1.70;;;0.70;;
24637;SDS011;12773;50.162;8.548;2023-03-14T14:53:43;1.42;;;0.57;;
24637;SDS011;12773;50.162;8.548;2023-03-14T14:56:30;1.37;;;0.75;;
24637;SDS011;12773;50.162;8.548;2023-03-14T14:59:24;0.60;;;0.60;;
24637;SDS011;12773;50.162;8.548;2023-03-14T15:02:09;1.12;;;0.80;;
24637;SDS011;12773;50.162;8.548;2023-03-14T15:08:12;1.27;;;1.00;;
24637;SDS011;12773;50.162;8.548;2023-03-14T15:11:14;1.75;;;1.20;;
24637;SDS011;12773;50.162;8.548;2023-03-14T15:13:57;2.08;;;1.25;;
24637;SDS011;12773;50.162;8.548;2023-03-14T15:16:45;1.32;;;1.00;;
24637;SDS011;12773;50.162;8.548;2023-03-14T15:19:33;2.27;;;0.78;;
24637;SDS011;12773;50.162;8.548;2023-03-14T15:22:20;2.30;;;1.00;;
24637;SDS011;12773;50.162;8.548;2023-03-14T15:25:07;0.90;;;0.60;;
24637;SDS011;12773;50.162;8.548;2023-03-14T15:27:57;0.53;;;0.50;;
24637;SDS011;12773;50.162;8.548;2023-03-14T15:30:44;1.57;;;0.50;;
24637;SDS011;12773;50.162;8.548;2023-03-14T15:33:32;1.32;;;0.62;;
24637;SDS011;12773;50.162;8.548;2023-03-14T15:36:21;0.50;;;0.50;;
24637;SDS011;12773;50.162;8.548;2023-03-14T15:39:13;0.72;;;0.50;;
24637;SDS011;12773;50.162;8.548;2023-03-14T15:42:00;1.27;;;0.40;;
24637;SDS011;12773;50.162;8.548;2023-03-14T15:44:48;0.95;;;0.50;;
24637;SDS011;12773;50.162;8.548;2023-03-14T15:47:34;1.22;;;0.40;;
24637;SDS011;12773;50.162;8.548;2023-03-14T15:50:22;0.88;;;0.50;;
24637;SDS011;12773;50.162;8.548;2023-03-14T15:53:11;0.40;;;0.35;;
24637;SDS011;12773;50.162;8.548;2023-03-14T15:56:01;0.65;;;0.30;;
24637;SDS011;12773;50.162;8.548;2023-03-14T15:58:50;0.30;;;0.30;;
24637;SDS011;12773;50.162;8.548;2023-03-14T16:01:37;0.75;;;0.30;;
24637;SDS011;12773;50.162;8.548;2023-03-14T16:04:24;0.47;;;0.40;;
24637;SDS011;12773;50.162;8.548;2023-03-14T16:07:12;1.90;;;0.55;;
24637;SDS011;12773;50.162;8.548;2023-03-14T16:10:00;3.75;;;0.60;;
24637;SDS011;12773;50.162;8.548;2023-03-14T16:12:48;3.30;;;0.50;;
24637;SDS011;12773;50.162;8.548;2023-03-14T16:15:35;0.90;;;0.53;;
24637;SDS011;12773;50.162;8.548;2023-03-14T16:18:23;1.37;;;0.42;;
24637;SDS011;12773;50.162;8.548;2023-03-14T16:21:11;0.95;;;0.40;;
24637;SDS011;12773;50.162;8.548;2023-03-14T16:24:00;0.90;;;0.60;;
24637;SDS011;12773;50.162;8.548;2023-03-14T16:26:49;2.72;;;0.65;;
24637;SDS011;12773;50.162;8.548;2023-03-14T16:29:36;0.90;;;0.50;;
24637;SDS011;12773;50.162;8.548;2023-03-14T16:32:24;0.80;;;0.53;;
24637;SDS011;12773;50.162;8.548;2023-03-14T16:35:11;0.40;;;0.40;;
24637;SDS011;12773;50.162;8.548;2023-03-14T16:37:59;2.40;;;0.82;;
24637;SDS011;12773;50.162;8.548;2023-03-14T16:40:56;0.30;;;0.30;;
24637;SDS011;12773;50.162;8.548;2023-03-14T16:43:45;0.72;;;0.60;;
24637;SDS011;12773;50.162;8.548;2023-03-14T16:46:34;0.90;;;0.70;;
24637;SDS011;12773;50.162;8.548;2023-03-14T16:49:22;2.05;;;1.12;;
24637;SDS011;12773;50.162;8.548;2023-03-14T16:52:10;2.00;;;0.82;;
24637;SDS011;12773;50.162;8.548;2023-03-14T16:54:58;0.88;;;0.65;;
24637;SDS011;12773;50.162;8.548;2023-03-14T16:57:45;2.85;;;0.50;;
24637;SDS011;12773;50.162;8.548;2023-03-14T17:00:32;1.45;;;0.60;;
24637;SDS011;12773;50.162;8.548;2023-03-14T17:03:19;1.02;;;0.40;;
24637;SDS011;12773;50.162;8.548;2023-03-14T17:06:07;1.37;;;0.50;;
24637;SDS011;12773;50.162;8.548;2023-03-14T17:08:59;0.72;;;0.37;;
24637;SDS011;12773;50.162;8.548;2023-03-14T17:11:48;0.45;;;0.40;;
24637;SDS011;12773;50.162;8.548;2023-03-14T17:14:35;1.05;;;0.60;;
24637;SDS011;12773;50.162;8.548;2023-03-14T17:17:22;0.98;;;0.50;;
24637;SDS011;12773;50.162;8.548;2023-03-14T17:20:10;1.52;;;0.60;;
24637;SDS011;12773;50.162;8.548;2023-03-14T17:22:57;0.53;;;0.40;;
24637;SDS011;12773;50.162;8.548;2023-03-14T17:25:45;0.40;;;0.37;;
24637;SDS011;12773;50.162;8.548;2023-03-14T17:28:34;0.47;;;0.37;;
24637;SDS011;12773;50.162;8.548;2023-03-14T17:31:21;1.20;;;0.40;;
24637;SDS011;12773;50.162;8.548;2023-03-14T17:34:09;0.53;;;0.53;;
24637;SDS011;12773;50.162;8.548;2023-03-14T17:36:56;2.35;;;1.40;;
24637;SDS011;12773;50.162;8.548;2023-03-14T17:39:44;1.25;;;0.90;;